Time;durP1;ratioP1;P1;durP2;ratioP2;P2;SDS_P1;SDS_P2;PMS_P1;PMS_P2;Temp;Humidity;BMP_temperature;BMP_pressure;BME280_temperature;BME280_humidity;BME280_pressure;Samples;Min_cycle;Max_cycle;Signal;HPM_P1;HPM_P2
2023/07/17 00:02:43;;;;;;;3.67;3.10;;;;;;;19.29;84.09;156322.16;4921411;29;20479;-82
2023/07/17 00:05:29;;;;;;;6.20;3.47;;;;;;;19.23;83.61;156306.53;4899262;29;20600;-83
2023/07/17 00:08:14;;;;;;;3.63;3.10;;;;;;;19.27;83.66;156316.91;4890915;29;20469;-83
2023/07/17 00:10:59;;;;;;;4.17;3.77;;;;;;;19.26;82.42;156314.34;4904875;29;20902;-82
2023/07/17 00:13:46;;;;;;;5.43;3.70;;;;;;;19.26;84.37;156313.03;4913265;29;20460;-83
2023/07/17 00:16:31;;;;;;;4.07;3.47;;;;;;;19.19;82.87;156294.81;4915094;29;20976;-82
2023/07/17 00:19:17;;;;;;;4.33;3.53;;;;;;;19.22;85.96;156303.88;4908633;29;20440;-82
2023/07/17 00:22:03;;;;;;;5.80;4.10;;;;;;;19.21;88.23;156301.31;4908760;29;20468;-82
2023/07/17 00:24:48;;;;;;;4.80;3.83;;;;;;;19.25;90.37;156311.72;4911266;29;20477;-82
2023/07/17 00:27:35;;;;;;;4.20;3.80;;;;;;;19.14;86.65;156283.03;4910475;29;20460;-82
2023/07/17 00:30:22;;;;;;;4.73;3.40;;;;;;;19.10;86.69;156271.31;4911523;29;20945;-82
2023/07/17 00:33:09;;;;;;;4.20;3.70;;;;;;;19.05;86.78;156259.59;4909812;29;20473;-82
2023/07/17 00:35:54;;;;;;;4.53;3.60;;;;;;;19.04;86.27;156256.97;4909731;29;20468;-83
2023/07/17 00:38:39;;;;;;;4.30;3.20;;;;;;;19.04;85.86;156256.97;4902594;29;20606;-82
2023/07/17 00:41:25;;;;;;;3.70;3.10;;;;;;;19.04;85.13;156256.97;4891068;29;20481;-82
2023/07/17 00:44:11;;;;;;;3.70;3.40;;;;;;;19.06;86.02;156262.19;4903587;29;20468;-82
2023/07/17 00:46:58;;;;;;;5.20;3.90;;;;;;;19.06;87.18;156262.19;4908619;29;20968;-82
2023/07/17 00:49:43;;;;;;;3.83;3.00;;;;;;;19.06;85.95;156262.19;4906329;29;20963;-82
2023/07/17 00:52:29;;;;;;;3.40;3.07;;;;;;;19.10;85.45;156271.31;4898727;29;20460;-82
2023/07/17 00:55:16;;;;;;;4.07;3.30;;;;;;;19.10;84.45;156272.63;4910405;29;20544;-82
2023/07/17 00:58:02;;;;;;;5.03;3.27;;;;;;;19.12;85.61;156277.84;4911411;29;20559;-82
2023/07/17 01:00:48;;;;;;;4.70;3.10;;;;;;;19.14;85.04;156283.03;4898700;29;20460;-82
2023/07/17 01:03:34;;;;;;;3.73;3.33;;;;;;;19.15;86.47;156285.66;4893294;29;20484;-82
2023/07/17 01:06:20;;;;;;;3.97;3.03;;;;;;;19.14;85.54;156281.78;4904490;29;20484;-83
2023/07/17 01:09:06;;;;;;;3.90;2.87;;;;;;;19.15;84.85;156284.34;4904629;29;20453;-82
2023/07/17 01:11:51;;;;;;;3.07;2.77;;;;;;;19.20;84.87;156298.69;4905078;29;20515;-82
2023/07/17 01:14:37;;;;;;;3.50;2.90;;;;;;;19.22;85.66;156303.88;4897961;29;20789;-82
2023/07/17 01:17:22;;;;;;;4.30;3.13;;;;;;;19.23;85.39;156306.53;4909736;29;20983;-82
2023/07/17 01:20:10;;;;;;;3.50;2.90;;;;;;;19.21;84.49;156301.31;4904996;29;21361;-83
2023/07/17 01:22:59;;;;;;;3.60;3.00;;;;;;;19.24;86.92;156309.13;4905747;29;20467;-82
2023/07/17 01:25:45;;;;;;;4.63;3.33;;;;;;;19.18;85.53;156292.19;4903985;29;20456;-82
2023/07/17 01:28:30;;;;;;;3.90;2.87;;;;;;;19.18;85.53;156292.19;4907306;29;20468;-82
2023/07/17 01:31:15;;;;;;;3.83;2.80;;;;;;;19.20;86.85;156298.69;4903282;29;20534;-82
2023/07/17 01:34:00;;;;;;;3.90;3.40;;;;;;;19.21;86.80;156301.31;4897243;29;20457;-83
2023/07/17 01:36:46;;;;;;;10.20;3.40;;;;;;;19.23;87.03;156306.53;4907266;29;20468;-83
2023/07/17 01:39:32;;;;;;;3.83;3.07;;;;;;;19.26;88.02;156314.34;4912635;29;21004;-83
2023/07/17 01:42:17;;;;;;;3.70;3.07;;;;;;;19.27;88.78;156316.91;4900488;29;20453;-83
2023/07/17 01:45:04;;;;;;;3.43;3.13;;;;;;;19.25;87.85;156310.41;4911150;29;20468;-82
2023/07/17 01:47:50;;;;;;;3.57;3.07;;;;;;;19.22;87.69;156303.88;4910614;29;20596;-83
2023/07/17 01:50:35;;;;;;;3.13;2.67;;;;;;;19.26;89.30;156314.34;4913155;29;20440;-82
2023/07/17 01:53:22;;;;;;;3.10;2.73;;;;;;;19.25;90.29;156311.72;4908319;29;20653;-82
2023/07/17 01:56:09;;;;;;;3.40;2.60;;;;;;;19.23;89.96;156305.19;4901160;29;20480;-83
2023/07/17 01:58:54;;;;;;;3.27;2.80;;;;;;;19.18;88.35;156293.50;4903533;29;20445;-82
2023/07/17 02:01:40;;;;;;;4.57;3.70;;;;;;;19.19;87.88;156294.81;4902990;29;20454;-82
2023/07/17 02:04:25;;;;;;;3.73;3.03;;;;;;;19.16;87.85;156288.28;4902329;29;20481;-82
2023/07/17 02:07:11;;;;;;;4.37;3.57;;;;;;;19.19;89.43;156294.81;4905283;29;20492;-82
2023/07/17 02:09:57;;;;;;;5.53;3.00;;;;;;;19.17;89.76;156290.88;4907971;29;20449;-82
2023/07/17 02:12:43;;;;;;;3.53;3.13;;;;;;;19.13;87.38;156280.47;4900533;29;20650;-82
2023/07/17 02:15:29;;;;;;;3.97;3.50;;;;;;;19.20;89.72;156297.38;4910747;29;20533;-82
2023/07/17 02:18:14;;;;;;;3.93;2.90;;;;;;;19.14;89.89;156283.03;4909467;29;20828;-82
2023/07/17 02:20:59;;;;;;;6.50;3.87;;;;;;;19.12;89.53;156277.84;4908387;29;20465;-82
2023/07/17 02:23:44;;;;;;;3.80;3.10;;;;;;;19.12;89.76;156276.53;4906690;29;20536;-82
2023/07/17 02:26:30;;;;;;;4.50;3.80;;;;;;;19.10;91.02;156271.31;4910640;29;20578;-82
2023/07/17 02:29:17;;;;;;;3.20;2.90;;;;;;;19.07;90.81;156264.81;4906167;29;20500;-82
2023/07/17 02:32:02;;;;;;;3.70;3.30;;;;;;;19.07;90.45;156263.50;4898585;29;20468;-82
2023/07/17 02:34:48;;;;;;;4.43;3.07;;;;;;;19.06;90.47;156262.19;4901672;29;20456;-82
2023/07/17 02:37:33;;;;;;;3.30;3.00;;;;;;;19.09;91.88;156270.00;4904244;29;21146;-82
2023/07/17 02:40:19;;;;;;;4.83;3.37;;;;;;;19.07;91.16;156264.81;4909942;29;20452;-82
2023/07/17 02:43:05;;;;;;;4.50;2.93;;;;;;;19.08;91.28;156267.44;4911868;29;20464;-82
2023/07/17 02:45:52;;;;;;;3.60;2.87;;;;;;;19.04;90.50;156256.97;4888210;29;20682;-81
2023/07/17 02:48:37;;;;;;;4.90;3.17;;;;;;;19.05;91.56;156259.59;4902608;29;20464;-82
2023/07/17 02:51:23;;;;;;;5.60;3.57;;;;;;;18.99;90.22;156243.97;4896146;29;20814;-82
2023/07/17 02:54:08;;;;;;;5.00;2.77;;;;;;;19.02;92.42;156251.78;4906734;29;20448;-82
2023/07/17 02:56:53;;;;;;;4.73;3.33;;;;;;;18.98;91.42;156241.38;4908004;29;20463;-82
2023/07/17 02:59:39;;;;;;;4.00;3.07;;;;;;;18.94;89.69;156229.63;4913494;29;20444;-82
2023/07/17 03:02:26;;;;;;;4.03;2.93;;;;;;;18.98;90.18;156240.06;4914971;29;20792;-82
2023/07/17 03:05:12;;;;;;;6.40;3.90;;;;;;;18.99;93.33;156243.97;4904488;29;20548;-82
2023/07/17 03:07:57;;;;;;;6.00;3.70;;;;;;;18.92;90.87;156224.41;4887012;29;20473;-83
2023/07/17 03:10:42;;;;;;;6.50;3.40;;;;;;;18.91;90.36;156223.09;4882916;29;20457;-82
2023/07/17 03:13:27;;;;;;;5.57;3.40;;;;;;;18.92;91.79;156224.41;4902048;29;21004;-82
2023/07/17 03:16:13;;;;;;;7.23;3.00;;;;;;;18.86;91.94;156210.09;4889563;29;20438;-82
2023/07/17 03:18:59;;;;;;;4.10;3.40;;;;;;;18.78;89.63;156189.22;4899932;29;20473;-82
2023/07/17 03:21:45;;;;;;;4.30;3.40;;;;;;;18.81;91.97;156198.38;4901999;29;20465;-82
2023/07/17 03:24:30;;;;;;;5.90;3.53;;;;;;;18.76;90.78;156184.03;4889010;29;20559;-82
2023/07/17 03:27:15;;;;;;;3.83;3.47;;;;;;;18.73;91.03;156176.22;4888850;29;20465;-82
2023/07/17 03:30:01;;;;;;;3.67;3.00;;;;;;;18.75;91.16;156182.72;4888070;29;20445;-82
2023/07/17 03:32:46;;;;;;;4.93;3.10;;;;;;;18.78;92.27;156189.22;4886864;29;20985;-82
2023/07/17 03:35:34;;;;;;;4.93;3.27;;;;;;;18.79;92.78;156191.84;4889763;29;20423;-82
2023/07/17 03:38:19;;;;;;;3.50;2.87;;;;;;;18.82;93.71;156199.69;4886809;29;20587;-83
2023/07/17 03:41:04;;;;;;;4.53;3.20;;;;;;;18.75;92.45;156182.72;4900693;29;20485;-82
2023/07/17 03:43:50;;;;;;;4.43;3.00;;;;;;;18.72;93.09;156173.59;4892918;29;20469;-82
2023/07/17 03:46:37;;;;;;;3.17;2.83;;;;;;;18.68;93.54;156164.50;4890626;29;20458;-82
2023/07/17 03:49:23;;;;;;;4.53;3.37;;;;;;;18.66;94.23;156158.00;4889387;29;20785;-82
2023/07/17 03:52:09;;;;;;;3.70;3.07;;;;;;;18.62;94.19;156147.53;4905242;29;20514;-78
2023/07/17 03:54:55;;;;;;;4.17;3.20;;;;;;;18.61;94.10;156144.97;4900196;29;20596;-78
2023/07/17 03:57:40;;;;;;;4.00;3.30;;;;;;;18.62;94.36;156148.84;4888932;29;20461;-78
2023/07/17 04:00:27;;;;;;;3.77;2.80;;;;;;;18.63;94.94;156150.16;4893962;29;20454;-78
2023/07/17 04:03:12;;;;;;;3.73;3.03;;;;;;;18.59;93.79;156139.72;4885160;29;20474;-78
2023/07/17 04:06:00;;;;;;;4.13;3.73;;;;;;;18.64;94.63;156152.75;4892097;29;20476;-78
2023/07/17 04:08:48;;;;;;;4.73;3.53;;;;;;;18.61;93.78;156144.97;4908770;29;20448;-78
2023/07/17 04:11:34;;;;;;;4.10;3.53;;;;;;;18.60;93.54;156143.66;4906210;29;20468;-78
2023/07/17 04:14:19;;;;;;;4.20;3.70;;;;;;;18.61;94.82;156144.97;4903099;29;20444;-78
2023/07/17 04:17:08;;;;;;;6.87;3.80;;;;;;;18.59;95.65;156141.03;4902945;29;20469;-78
2023/07/17 04:19:53;;;;;;;4.20;3.20;;;;;;;18.56;95.08;156131.94;4902472;29;20543;-78
2023/07/17 04:22:40;;;;;;;4.13;3.10;;;;;;;18.55;96.33;156129.31;4912871;29;20452;-78
2023/07/17 04:25:28;;;;;;;3.90;3.50;;;;;;;18.49;94.76;156114.97;4911943;29;20472;-78
2023/07/17 04:28:14;;;;;;;6.60;3.60;;;;;;;18.49;93.96;156113.66;4908956;29;20468;-78
2023/07/17 04:31:02;;;;;;;4.90;3.37;;;;;;;18.54;94.13;156128.00;4909886;29;20941;-78
2023/07/17 04:33:47;;;;;;;8.20;4.03;;;;;;;18.59;94.09;156141.03;4913496;29;20429;-78
2023/07/17 04:36:32;;;;;;;7.20;4.30;;;;;;;18.70;93.59;156168.38;4909065;29;20458;-78
2023/07/17 04:39:18;;;;;;;4.80;3.30;;;;;;;18.88;95.28;156215.28;4910357;29;20537;-78
2023/07/17 04:42:05;;;;;;;8.20;3.13;;;;;;;19.04;95.56;156256.97;4911425;29;20444;-76
2023/07/17 04:44:50;;;;;;;6.23;3.73;;;;;;;19.22;94.04;156303.88;4899934;29;20984;-77
2023/07/17 04:47:35;;;;;;;6.43;3.67;;;;;;;19.41;92.60;156353.47;4907700;29;20460;-77
2023/07/17 04:50:26;;;;;;;5.33;3.73;;;;;;;19.51;91.44;156378.28;4911049;29;20459;-77
2023/07/17 04:53:19;;;;;;;5.83;3.17;;;;;;;19.51;89.97;156376.97;4910112;29;20461;-77
2023/07/17 04:56:07;;;;;;;5.27;3.60;;;;;;;19.47;90.13;156366.50;4908804;29;20496;-77
2023/07/17 04:58:55;;;;;;;3.60;3.30;;;;;;;19.37;89.90;156343.06;4911454;29;20536;-78
2023/07/17 05:01:40;;;;;;;4.27;3.23;;;;;;;19.29;91.61;156322.16;4905825;29;20507;-78
2023/07/17 05:04:29;;;;;;;5.50;3.63;;;;;;;19.23;92.27;156306.53;4893785;29;20529;-78
2023/07/17 05:07:15;;;;;;;5.87;4.80;;;;;;;19.29;92.00;156322.16;4916031;29;20591;-79
2023/07/17 05:10:03;;;;;;;13.40;10.90;;;;;;;19.30;89.49;156324.75;4888104;29;20455;-78
2023/07/17 05:12:48;;;;;;;14.90;13.40;;;;;;;19.37;91.04;156341.72;4907888;29;20891;-78
2023/07/17 05:15:35;;;;;;;17.90;13.20;;;;;;;19.33;91.29;156331.25;4915899;29;20443;-78
2023/07/17 05:18:22;;;;;;;12.33;11.00;;;;;;;19.35;91.15;156337.78;4894964;29;20608;-77
2023/07/17 05:21:08;;;;;;;10.33;9.10;;;;;;;19.34;91.33;156335.19;4893547;29;20948;-77
2023/07/17 05:24:06;;;;;;;10.83;9.60;;;;;;;19.34;92.45;156335.19;4912412;29;20452;-77
2023/07/17 05:26:52;;;;;;;9.60;7.87;;;;;;;19.34;91.89;156335.19;4896052;29;20994;-78
2023/07/17 05:29:37;;;;;;;8.83;6.70;;;;;;;19.41;91.42;156353.47;4916914;29;20840;-77
2023/07/17 05:32:25;;;;;;;7.50;6.70;;;;;;;19.63;90.96;156408.22;4895862;29;20464;-78
2023/07/17 05:35:20;;;;;;;7.73;6.93;;;;;;;19.81;91.89;156456.47;4909259;29;20480;-78
2023/07/17 05:38:06;;;;;;;7.80;6.00;;;;;;;19.90;89.17;156478.66;4916104;29;20461;-78
2023/07/17 05:40:58;;;;;;;8.87;6.50;;;;;;;19.99;89.02;156502.09;4916563;29;20443;-78
2023/07/17 05:43:43;;;;;;;10.43;4.77;;;;;;;19.96;89.19;156495.56;4918977;29;20485;-78
2023/07/17 05:46:31;;;;;;;6.30;5.20;;;;;;;19.94;89.84;156489.06;4893661;29;20972;-78
2023/07/17 05:49:18;;;;;;;5.00;4.40;;;;;;;19.99;87.17;156502.09;4919709;29;20806;-78
2023/07/17 05:52:05;;;;;;;8.20;4.97;;;;;;;20.12;87.30;156536.00;4904396;29;20519;-78
2023/07/17 05:54:50;;;;;;;5.93;4.47;;;;;;;20.28;86.72;156577.78;4918490;29;20808;-78
2023/07/17 05:57:36;;;;;;;6.50;4.20;;;;;;;20.36;87.38;156598.66;4909230;29;20655;-78
2023/07/17 06:00:21;;;;;;;5.60;4.00;;;;;;;20.45;86.75;156622.16;4905616;29;20448;-78
2023/07/17 06:03:06;;;;;;;5.17;4.30;;;;;;;20.67;85.27;156676.94;4892705;29;20867;-79
2023/07/17 06:05:53;;;;;;;6.30;3.80;;;;;;;21.01;84.27;156765.66;4913037;29;20491;-79
2023/07/17 06:08:39;;;;;;;4.70;3.80;;;;;;;21.39;83.22;156864.91;4907606;29;20461;-79
2023/07/17 06:11:24;;;;;;;6.00;3.63;;;;;;;21.70;80.04;156945.84;4908186;29;20841;-79
2023/07/17 06:14:09;;;;;;;5.17;3.77;;;;;;;21.94;81.21;157005.94;4918624;29;20448;-80
2023/07/17 06:16:55;;;;;;;5.30;4.40;;;;;;;22.21;78.36;157077.75;4913267;29;20976;-79
2023/07/17 06:19:39;;;;;;;4.50;3.23;;;;;;;22.49;75.13;157149.59;4918954;29;20451;-80
2023/07/17 06:22:26;;;;;;;5.60;3.23;;;;;;;22.64;76.25;157188.81;4905066;29;20809;-80
2023/07/17 06:25:19;;;;;;;4.17;3.50;;;;;;;22.90;74.61;157255.50;4911380;29;20474;-80
2023/07/17 06:28:05;;;;;;;5.10;3.33;;;;;;;23.06;72.97;157296.00;4916295;29;20455;-79
2023/07/17 06:30:51;;;;;;;3.57;3.23;;;;;;;23.29;72.55;157356.09;4917013;29;20467;-79
2023/07/17 06:33:36;;;;;;;8.87;4.50;;;;;;;23.46;72.52;157401.88;4904866;29;20472;-81
2023/07/17 06:36:21;;;;;;;5.43;3.53;;;;;;;23.61;69.82;157441.13;4906848;29;20495;-81
2023/07/17 06:39:08;;;;;;;4.50;3.13;;;;;;;23.77;70.22;157481.66;4918193;29;20440;-80
2023/07/17 06:45:59;;;;;;;3.93;3.20;;;;;;;24.27;64.86;157611.13;4915072;29;20463;-81
2023/07/17 06:48:45;;;;;;;5.83;3.47;;;;;;;24.41;66.23;157646.47;4918142;29;20456;-81
2023/07/17 06:51:30;;;;;;;4.07;3.27;;;;;;;24.49;62.15;157667.38;4918999;29;20444;-82
2023/07/17 06:54:17;;;;;;;4.60;3.40;;;;;;;24.68;64.18;157718.38;4917237;29;20806;-82
2023/07/17 06:57:03;;;;;;;3.97;3.57;;;;;;;24.86;64.05;157762.94;4919451;29;20587;-82
2023/07/17 06:59:48;;;;;;;3.50;2.90;;;;;;;24.99;65.37;157798.25;4916649;29;20436;-82
2023/07/17 07:02:33;;;;;;;4.10;3.27;;;;;;;25.18;59.52;157847.94;4904524;29;20492;-83
2023/07/17 07:05:19;;;;;;;3.80;3.07;;;;;;;25.43;61.35;157913.41;4919487;29;20472;-83
2023/07/17 07:08:05;;;;;;;4.90;3.30;;;;;;;25.53;61.88;157936.97;4916044;29;20468;-83
2023/07/17 07:19:04;;;;;;;5.37;4.03;;;;;;;25.77;55.54;157999.81;4916739;29;20437;-83
2023/07/17 07:21:49;;;;;;;6.60;3.90;;;;;;;25.91;56.51;158036.50;4905025;29;20468;-84
2023/07/17 07:24:35;;;;;;;5.07;4.37;;;;;;;26.07;56.86;158077.06;4916255;29;20457;-83
2023/07/17 07:27:21;;;;;;;5.80;4.00;;;;;;;26.18;53.92;158107.25;4918921;29;20471;-83
2023/07/17 07:30:07;;;;;;;6.00;4.30;;;;;;;26.22;55.34;158116.38;4906180;29;20448;-84
2023/07/17 07:32:52;;;;;;;7.63;4.20;;;;;;;26.21;56.45;158115.06;4917876;29;20535;-83
2023/07/17 07:35:39;;;;;;;5.23;4.10;;;;;;;26.46;51.95;158180.56;4920544;29;20443;-83
2023/07/17 07:38:24;;;;;;;4.47;3.70;;;;;;;26.68;52.27;158236.91;4915723;29;20887;-83
2023/07/17 07:41:09;;;;;;;5.00;4.50;;;;;;;26.89;50.91;158290.66;4919949;29;21054;-83
2023/07/17 07:43:54;;;;;;;6.37;4.77;;;;;;;26.92;50.97;158299.84;4915630;29;20459;-83
2023/07/17 07:46:40;;;;;;;5.03;3.90;;;;;;;27.06;52.55;158335.16;4918346;29;20467;-83
2023/07/17 07:49:25;;;;;;;4.73;4.23;;;;;;;27.13;52.47;158353.53;4917876;29;20586;-83
2023/07/17 07:52:12;;;;;;;6.97;4.50;;;;;;;27.33;49.84;158405.94;4920271;29;20924;-83
2023/07/17 07:54:57;;;;;;;5.10;4.60;;;;;;;27.33;52.83;158405.94;4920384;29;20865;-84
2023/07/17 07:57:43;;;;;;;4.97;4.47;;;;;;;27.42;55.16;158428.28;4921223;29;20460;-83
2023/07/17 08:00:28;;;;;;;4.40;3.97;;;;;;;27.34;51.07;158407.25;4919433;29;20911;-84
2023/07/17 08:03:13;;;;;;;6.17;4.57;;;;;;;27.37;46.66;158416.44;4923190;29;20492;-84
2023/07/17 08:05:58;;;;;;;5.10;4.60;;;;;;;27.53;50.17;158458.44;4918394;29;20484;-84
2023/07/17 08:08:45;;;;;;;4.80;4.30;;;;;;;27.70;46.73;158501.66;4924007;29;20460;-84
2023/07/17 08:11:30;;;;;;;4.50;4.10;;;;;;;27.88;42.94;158547.56;4924149;29;20584;-83
2023/07/17 08:14:15;;;;;;;5.17;4.67;;;;;;;27.92;43.88;158558.03;4919805;29;20776;-84
2023/07/17 08:17:01;;;;;;;5.47;4.70;;;;;;;28.12;42.02;158610.50;4923458;29;20452;-83
2023/07/17 08:19:46;;;;;;;7.13;4.93;;;;;;;28.16;49.47;158621.00;4919532;29;20443;-83
2023/07/17 08:22:32;;;;;;;5.00;4.00;;;;;;;28.11;50.24;158607.91;4921308;29;20599;-83
2023/07/17 08:25:18;;;;;;;6.87;4.20;;;;;;;28.18;47.66;158626.22;4921433;29;20960;-83
2023/07/17 08:28:04;;;;;;;6.00;4.23;;;;;;;28.36;45.56;158674.75;4920407;29;21049;-83
2023/07/17 08:30:51;;;;;;;5.50;4.90;;;;;;;28.60;47.45;158736.38;4920544;29;20471;-83
2023/07/17 08:33:38;;;;;;;6.10;5.00;;;;;;;28.54;48.14;158720.63;4920962;29;20617;-83
2023/07/17 08:36:23;;;;;;;5.47;4.40;;;;;;;28.59;39.88;158733.78;4920816;29;20451;-83
2023/07/17 08:39:09;;;;;;;5.07;4.23;;;;;;;28.60;42.72;158736.38;4921265;29;20610;-83
2023/07/17 08:41:55;;;;;;;5.90;4.73;;;;;;;28.80;46.33;158787.59;4919427;29;20468;-83
2023/07/17 08:44:41;;;;;;;6.27;4.70;;;;;;;28.72;44.55;158766.59;4920593;29;20978;-83
2023/07/17 08:47:27;;;;;;;4.30;3.60;;;;;;;28.83;45.03;158796.75;4919824;29;20509;-83
2023/07/17 08:50:13;;;;;;;8.27;4.10;;;;;;;28.93;46.23;158823.03;4920579;29;20789;-83
2023/07/17 08:52:58;;;;;;;5.60;4.30;;;;;;;29.05;45.05;158853.16;4921405;29;20460;-83
2023/07/17 08:55:44;;;;;;;4.77;4.33;;;;;;;29.19;46.35;158888.59;4920738;29;20447;-83
2023/07/17 08:58:30;;;;;;;6.03;4.30;;;;;;;29.14;38.10;158875.47;4922431;29;20552;-83
2023/07/17 09:01:16;;;;;;;6.13;4.13;;;;;;;29.01;41.62;158841.38;4920812;29;20488;-83
2023/07/17 09:04:02;;;;;;;6.40;4.60;;;;;;;28.77;42.45;158781.03;4919648;29;21038;-83
2023/07/17 09:06:47;;;;;;;5.10;4.57;;;;;;;28.39;46.30;158681.31;4920996;29;20606;-84
2023/07/17 09:09:33;;;;;;;4.63;4.07;;;;;;;28.28;44.12;158652.44;4920679;29;20452;-83
2023/07/17 09:12:19;;;;;;;7.43;4.63;;;;;;;28.48;49.77;158704.94;4919108;29;20463;-84
2023/07/17 09:15:07;;;;;;;4.00;3.60;;;;;;;28.60;42.32;158735.06;4920137;29;21318;-83
2023/07/17 09:17:53;;;;;;;5.27;4.50;;;;;;;28.80;46.92;158787.59;4894693;29;20468;-83
2023/07/17 09:20:38;;;;;;;6.20;4.30;;;;;;;28.81;43.15;158791.50;4919369;29;20962;-83
2023/07/17 09:23:24;;;;;;;5.17;4.43;;;;;;;28.91;45.97;158817.72;4918760;29;20452;-83
2023/07/17 09:26:10;;;;;;;4.57;4.17;;;;;;;28.93;39.49;158821.69;4906677;29;20495;-83
2023/07/17 09:28:57;;;;;;;4.97;4.40;;;;;;;29.08;41.74;158861.03;4905980;29;20560;-83
2023/07/17 09:31:43;;;;;;;5.83;4.40;;;;;;;29.04;46.23;158849.25;4918852;29;20546;-83
2023/07/17 09:34:28;;;;;;;6.80;4.50;;;;;;;29.08;46.75;158859.72;4918709;29;20500;-82
2023/07/17 09:37:14;;;;;;;5.07;4.30;;;;;;;28.97;45.07;158833.50;4919775;29;20455;-83
2023/07/17 09:40:05;;;;;;;5.97;3.87;;;;;;;28.97;43.27;158832.16;4920225;29;20596;-83
2023/07/17 09:42:53;;;;;;;5.90;4.63;;;;;;;28.88;47.52;158809.91;4920168;29;20459;-83
2023/07/17 09:45:38;;;;;;;5.70;4.23;;;;;;;28.87;47.53;158807.25;4919223;29;20475;-82
2023/07/17 09:48:25;;;;;;;5.17;4.67;;;;;;;28.73;41.02;158770.53;4920031;29;20460;-83
2023/07/17 09:51:11;;;;;;;6.13;4.47;;;;;;;28.54;40.23;158720.63;4920076;29;20571;-82
2023/07/17 09:53:58;;;;;;;5.80;5.30;;;;;;;28.68;42.06;158756.09;4918667;29;20456;-82
2023/07/17 09:56:47;;;;;;;5.00;4.50;;;;;;;28.82;48.65;158794.16;4918664;29;20451;-82
2023/07/17 09:59:33;;;;;;;5.70;5.10;;;;;;;29.04;50.08;158849.25;4918448;29;20931;-82
2023/07/17 10:02:20;;;;;;;5.77;4.37;;;;;;;29.18;38.16;158885.94;4892749;29;20478;-83
2023/07/17 10:05:08;;;;;;;4.50;4.10;;;;;;;29.53;42.30;158977.84;4918378;29;20577;-82
2023/07/17 10:07:54;;;;;;;4.80;4.30;;;;;;;29.51;44.34;158972.59;4917871;29;20977;-82
2023/07/17 10:10:40;;;;;;;4.90;4.40;;;;;;;29.20;42.68;158891.22;4920076;29;20447;-84
2023/07/17 10:13:25;;;;;;;5.00;4.60;;;;;;;28.97;47.26;158833.50;4904008;29;20473;-83
2023/07/17 10:16:12;;;;;;;4.97;4.27;;;;;;;28.93;44.48;158823.03;4919491;29;20443;-85
2023/07/17 10:18:57;;;;;;;5.90;4.30;;;;;;;28.84;42.71;158799.38;4918233;29;20628;-84
2023/07/17 10:21:54;;;;;;;4.70;4.10;;;;;;;28.78;46.01;158782.38;4922199;29;20946;-85
2023/07/17 10:24:40;;;;;;;5.20;4.70;;;;;;;28.72;49.39;158767.94;4918416;29;20800;-84
2023/07/17 10:27:37;;;;;;;5.40;3.93;;;;;;;28.67;45.36;158754.81;4918905;29;21038;-84
2023/07/17 10:30:27;;;;;;;5.27;4.20;;;;;;;28.65;52.14;158748.22;4904021;29;20445;-84
2023/07/17 10:33:13;;;;;;;4.23;3.83;;;;;;;28.57;47.39;158728.50;4918991;29;20855;-84
2023/07/17 10:36:00;;;;;;;4.90;4.40;;;;;;;28.57;42.04;158728.50;4919354;29;20624;-84
2023/07/17 10:38:53;;;;;;;4.40;3.80;;;;;;;28.66;50.53;158750.84;4918232;29;20460;-83
2023/07/17 10:41:38;;;;;;;5.20;4.70;;;;;;;28.50;48.82;158710.16;4919966;29;20447;-84
2023/07/17 10:44:34;;;;;;;5.57;4.53;;;;;;;28.29;43.99;158655.09;4917391;29;20440;-84
2023/07/17 10:47:19;;;;;;;6.30;5.17;;;;;;;28.16;45.77;158621.00;4892816;29;20504;-83
2023/07/17 10:50:06;;;;;;;5.10;4.63;;;;;;;28.05;46.46;158592.16;4918704;29;20966;-83
2023/07/17 10:52:52;;;;;;;5.37;4.20;;;;;;;27.97;43.55;158572.44;4920456;29;21252;-83
2023/07/17 10:55:38;;;;;;;5.80;4.70;;;;;;;27.95;49.29;158565.91;4919521;29;20451;-83
2023/07/17 10:58:24;;;;;;;5.30;4.80;;;;;;;27.85;50.49;158539.69;4919300;29;20476;-84
2023/07/17 11:01:09;;;;;;;4.67;4.27;;;;;;;27.66;47.34;158492.50;4920064;29;20601;-83
2023/07/17 11:03:54;;;;;;;7.33;4.77;;;;;;;27.61;52.03;158478.09;4904585;29;20504;-83
2023/07/17 11:06:39;;;;;;;5.43;4.50;;;;;;;27.43;43.90;158432.19;4918586;29;20475;-83
2023/07/17 11:09:28;;;;;;;6.10;4.70;;;;;;;27.28;45.15;158392.84;4917240;29;20823;-83
2023/07/17 11:12:14;;;;;;;5.40;4.73;;;;;;;27.18;47.01;158366.63;4916223;29;20468;-83
2023/07/17 11:15:00;;;;;;;4.50;4.10;;;;;;;27.27;40.73;158388.94;4919529;29;20444;-82
2023/07/17 11:17:45;;;;;;;5.50;4.90;;;;;;;27.39;42.65;158421.69;4906464;29;20477;-82
2023/07/17 11:20:32;;;;;;;5.30;4.37;;;;;;;27.54;44.92;158461.03;4918366;29;20539;-82
2023/07/17 11:23:17;;;;;;;5.33;4.77;;;;;;;27.65;43.88;158488.53;4919082;29;20455;-82
2023/07/17 11:26:03;;;;;;;5.83;5.03;;;;;;;27.71;45.18;158505.59;4919082;29;20468;-82
2023/07/17 11:28:51;;;;;;;5.73;4.97;;;;;;;27.84;51.41;158537.03;4916345;29;20441;-82
2023/07/17 11:31:37;;;;;;;5.23;4.73;;;;;;;27.88;53.15;158547.56;4894804;29;20459;-82
2023/07/17 11:34:23;;;;;;;5.47;4.67;;;;;;;27.79;50.00;158526.59;4922008;29;20464;-82
2023/07/17 11:37:08;;;;;;;5.60;4.53;;;;;;;27.88;48.99;158547.56;4906887;29;21083;-82
2023/07/17 11:39:54;;;;;;;5.10;4.17;;;;;;;27.96;49.46;158568.53;4922323;29;20441;-82
2023/07/17 11:42:53;;;;;;;5.93;4.33;;;;;;;27.94;49.83;158563.25;4923830;29;20799;-82
2023/07/17 11:45:41;;;;;;;4.93;4.43;;;;;;;27.91;48.05;158555.38;4920971;29;20484;-81
2023/07/17 11:48:26;;;;;;;4.90;4.50;;;;;;;27.72;41.66;158508.19;4922169;29;20501;-82
2023/07/17 11:51:11;;;;;;;6.90;4.47;;;;;;;27.73;44.99;158510.84;4924768;29;20576;-81
2023/07/17 11:53:57;;;;;;;5.80;5.23;;;;;;;27.82;51.84;158531.81;4920822;29;20455;-82
2023/07/17 11:56:43;;;;;;;5.37;4.87;;;;;;;27.71;50.47;158505.59;4923262;29;20504;-81
2023/07/17 11:59:28;;;;;;;5.50;4.90;;;;;;;27.76;53.39;158517.41;4921891;29;20958;-81
2023/07/17 12:02:15;;;;;;;5.70;4.60;;;;;;;27.87;42.72;158544.91;4922607;29;20507;-81
2023/07/17 12:05:01;;;;;;;4.70;4.30;;;;;;;28.00;49.48;158579.00;4923466;29;20808;-81
2023/07/17 12:07:46;;;;;;;4.77;4.37;;;;;;;27.94;46.31;158563.25;4917418;29;20480;-82
2023/07/17 12:10:33;;;;;;;5.50;5.00;;;;;;;27.89;46.70;158551.47;4916126;29;20451;-82
2023/07/17 12:13:18;;;;;;;5.63;4.80;;;;;;;27.90;48.01;158554.13;4921031;29;20470;-82
2023/07/17 12:16:03;;;;;;;5.10;4.50;;;;;;;27.88;47.43;158547.56;4921249;29;20455;-82
2023/07/17 12:18:50;;;;;;;7.73;4.93;;;;;;;27.87;42.35;158544.91;4920892;29;20583;-82
2023/07/17 12:21:36;;;;;;;6.10;5.20;;;;;;;27.90;48.40;158552.78;4921390;29;21571;-82
2023/07/17 12:24:21;;;;;;;4.83;4.33;;;;;;;27.90;49.56;158552.78;4915650;29;20631;-82
2023/07/17 12:27:07;;;;;;;6.80;5.47;;;;;;;27.88;49.37;158548.81;4904139;29;20488;-82
2023/07/17 12:29:52;;;;;;;4.70;4.30;;;;;;;27.81;53.15;158530.50;4920963;29;20468;-82
2023/07/17 12:32:38;;;;;;;6.60;4.77;;;;;;;27.74;49.30;158512.16;4915078;29;20620;-81
2023/07/17 12:35:25;;;;;;;6.07;4.70;;;;;;;27.79;53.17;158526.59;4913733;29;20500;-82
2023/07/17 12:38:10;;;;;;;6.43;5.37;;;;;;;27.79;51.23;158526.59;4919187;29;20960;-81
2023/07/17 12:40:55;;;;;;;6.10;4.90;;;;;;;27.76;53.89;158517.41;4920877;29;20479;-81
2023/07/17 12:43:42;;;;;;;6.00;5.23;;;;;;;27.75;46.46;158516.06;4919989;29;20457;-81
2023/07/17 12:46:27;;;;;;;5.10;4.60;;;;;;;27.84;51.56;158538.38;4920363;29;20472;-81
2023/07/17 12:49:13;;;;;;;4.80;4.40;;;;;;;27.82;56.61;158531.81;4907791;29;20586;-82
2023/07/17 12:52:00;;;;;;;6.73;4.93;;;;;;;27.66;47.22;158492.50;4921987;29;20506;-82
2023/07/17 12:54:45;;;;;;;5.83;5.33;;;;;;;27.61;44.92;158479.41;4919872;29;20587;-81
2023/07/17 12:57:30;;;;;;;6.00;5.10;;;;;;;27.53;42.07;158457.13;4894087;29;20580;-82
2023/07/17 13:00:16;;;;;;;5.40;4.90;;;;;;;27.56;52.65;158466.25;4919290;29;20525;-82
2023/07/17 13:03:01;;;;;;;5.80;4.87;;;;;;;27.46;46.59;158438.75;4908474;29;20468;-81
2023/07/17 13:05:47;;;;;;;5.97;5.07;;;;;;;27.45;48.68;158437.47;4915686;29;20479;-81